sensor_id;sensor_type;location;lat;lon;timestamp;temperature;humidity
67157;SHT31;54086;50.126;8.710;2023-03-19T00:02:12;12.40;80.85
67157;SHT31;54086;50.126;8.710;2023-03-19T00:04:38;12.41;80.79
67157;SHT31;54086;50.126;8.710;2023-03-19T00:07:03;12.30;81.23
67157;SHT31;54086;50.126;8.710;2023-03-19T00:09:28;12.27;81.25
67157;SHT31;54086;50.126;8.710;2023-03-19T00:11:54;12.29;81.32
67157;SHT31;54086;50.126;8.710;2023-03-19T00:14:19;12.34;81.38
67157;SHT31;54086;50.126;8.710;2023-03-19T00:16:44;12.25;81.61
67157;SHT31;54086;50.126;8.710;2023-03-19T00:19:10;12.19;82.05
67157;SHT31;54086;50.126;8.710;2023-03-19T00:21:35;12.27;81.96
67157;SHT31;54086;50.126;8.710;2023-03-19T00:24:01;12.30;81.96
67157;SHT31;54086;50.126;8.710;2023-03-19T00:26:31;12.29;81.95
67157;SHT31;54086;50.126;8.710;2023-03-19T00:28:57;12.22;82.21
67157;SHT31;54086;50.126;8.710;2023-03-19T00:31:24;12.16;82.72
67157;SHT31;54086;50.126;8.710;2023-03-19T00:33:50;12.10;82.78
67157;SHT31;54086;50.126;8.710;2023-03-19T00:36:16;12.05;82.73
67157;SHT31;54086;50.126;8.710;2023-03-19T00:38:43;12.00;82.62
67157;SHT31;54086;50.126;8.710;2023-03-19T00:41:09;11.92;82.86
67157;SHT31;54086;50.126;8.710;2023-03-19T00:43:35;11.90;82.77
67157;SHT31;54086;50.126;8.710;2023-03-19T00:46:00;11.93;82.82
67157;SHT31;54086;50.126;8.710;2023-03-19T00:48:26;11.86;82.91
67157;SHT31;54086;50.126;8.710;2023-03-19T00:50:52;11.78;83.17
67157;SHT31;54086;50.126;8.710;2023-03-19T00:53:17;11.74;83.03
67157;SHT31;54086;50.126;8.710;2023-03-19T00:55:42;11.75;83.10
67157;SHT31;54086;50.126;8.710;2023-03-19T00:58:08;11.72;83.30
67157;SHT31;54086;50.126;8.710;2023-03-19T01:00:35;11.78;83.00
67157;SHT31;54086;50.126;8.710;2023-03-19T01:03:01;11.69;83.16
67157;SHT31;54086;50.126;8.710;2023-03-19T01:05:28;11.72;83.17
67157;SHT31;54086;50.126;8.710;2023-03-19T01:07:53;11.72;83.16
67157;SHT31;54086;50.126;8.710;2023-03-19T01:10:20;11.71;83.14
67157;SHT31;54086;50.126;8.710;2023-03-19T01:12:47;11.78;83.02
67157;SHT31;54086;50.126;8.710;2023-03-19T01:15:12;11.83;82.62
67157;SHT31;54086;50.126;8.710;2023-03-19T01:17:38;11.75;83.08
67157;SHT31;54086;50.126;8.710;2023-03-19T01:20:04;11.65;83.41
67157;SHT31;54086;50.126;8.710;2023-03-19T01:22:35;11.50;83.78
67157;SHT31;54086;50.126;8.710;2023-03-19T01:25:01;11.44;83.91
67157;SHT31;54086;50.126;8.710;2023-03-19T01:27:27;11.55;83.56
67157;SHT31;54086;50.126;8.710;2023-03-19T01:29:52;11.58;83.25
67157;SHT31;54086;50.126;8.710;2023-03-19T01:32:17;11.65;82.91
67157;SHT31;54086;50.126;8.710;2023-03-19T01:34:43;11.68;82.11
67157;SHT31;54086;50.126;8.710;2023-03-19T01:37:08;11.74;81.48
67157;SHT31;54086;50.126;8.710;2023-03-19T01:39:34;11.86;78.38
67157;SHT31;54086;50.126;8.710;2023-03-19T01:42:00;12.05;77.04
67157;SHT31;54086;50.126;8.710;2023-03-19T01:44:35;12.05;75.15
67157;SHT31;54086;50.126;8.710;2023-03-19T01:47:05;12.02;74.32
67157;SHT31;54086;50.126;8.710;2023-03-19T01:49:32;12.17;73.35
67157;SHT31;54086;50.126;8.710;2023-03-19T01:52:00;12.16;71.93
67157;SHT31;54086;50.126;8.710;2023-03-19T01:54:27;12.16;71.98
67157;SHT31;54086;50.126;8.710;2023-03-19T01:57:02;12.19;71.60
67157;SHT31;54086;50.126;8.710;2023-03-19T01:59:33;12.16;72.00
67157;SHT31;54086;50.126;8.710;2023-03-19T02:02:05;12.13;71.73
67157;SHT31;54086;50.126;8.710;2023-03-19T02:04:33;12.16;71.74
67157;SHT31;54086;50.126;8.710;2023-03-19T02:06:59;12.17;71.82
67157;SHT31;54086;50.126;8.710;2023-03-19T02:09:28;12.16;71.87
67157;SHT31;54086;50.126;8.710;2023-03-19T02:11:54;12.27;71.69
67157;SHT31;54086;50.126;8.710;2023-03-19T02:14:20;12.20;71.74
67157;SHT31;54086;50.126;8.710;2023-03-19T02:16:47;12.19;71.74
67157;SHT31;54086;50.126;8.710;2023-03-19T02:19:16;12.16;71.87
67157;SHT31;54086;50.126;8.710;2023-03-19T02:21:42;12.19;71.71
67157;SHT31;54086;50.126;8.710;2023-03-19T02:24:13;12.17;71.63
67157;SHT31;54086;50.126;8.710;2023-03-19T02:26:41;12.10;71.79
67157;SHT31;54086;50.126;8.710;2023-03-19T02:29:08;12.15;71.71
67157;SHT31;54086;50.126;8.710;2023-03-19T02:31:34;12.16;71.76
67157;SHT31;54086;50.126;8.710;2023-03-19T02:34:03;12.15;71.82
67157;SHT31;54086;50.126;8.710;2023-03-19T02:36:34;12.10;71.78
67157;SHT31;54086;50.126;8.710;2023-03-19T02:39:03;12.17;71.80
67157;SHT31;54086;50.126;8.710;2023-03-19T02:41:30;12.19;73.11
67157;SHT31;54086;50.126;8.710;2023-03-19T02:43:57;12.16;73.65
67157;SHT31;54086;50.126;8.710;2023-03-19T02:46:23;12.13;74.22
67157;SHT31;54086;50.126;8.710;2023-03-19T02:48:49;12.06;74.69
67157;SHT31;54086;50.126;8.710;2023-03-19T02:51:14;12.05;73.36
67157;SHT31;54086;50.126;8.710;2023-03-19T02:53:40;11.93;73.62
67157;SHT31;54086;50.126;8.710;2023-03-19T02:56:05;11.95;75.25
67157;SHT31;54086;50.126;8.710;2023-03-19T02:58:31;11.89;76.13
67157;SHT31;54086;50.126;8.710;2023-03-19T03:00:56;11.82;76.51
67157;SHT31;54086;50.126;8.710;2023-03-19T03:03:22;11.68;76.28
67157;SHT31;54086;50.126;8.710;2023-03-19T03:05:47;11.62;76.77
67157;SHT31;54086;50.126;8.710;2023-03-19T03:08:12;11.55;77.48
67157;SHT31;54086;50.126;8.710;2023-03-19T03:10:38;11.50;77.18
67157;SHT31;54086;50.126;8.710;2023-03-19T03:13:03;11.54;76.77
67157;SHT31;54086;50.126;8.710;2023-03-19T03:15:30;11.54;76.65
67157;SHT31;54086;50.126;8.710;2023-03-19T03:17:55;11.52;76.73
67157;SHT31;54086;50.126;8.710;2023-03-19T03:20:21;11.55;77.31
67157;SHT31;54086;50.126;8.710;2023-03-19T03:22:46;11.27;79.06
67157;SHT31;54086;50.126;8.710;2023-03-19T03:25:12;11.06;80.06
67157;SHT31;54086;50.126;8.710;2023-03-19T03:27:38;11.03;80.59
67157;SHT31;54086;50.126;8.710;2023-03-19T03:30:05;10.80;81.82
67157;SHT31;54086;50.126;8.710;2023-03-19T03:32:32;10.69;81.87
67157;SHT31;54086;50.126;8.710;2023-03-19T03:34:57;10.65;81.77
67157;SHT31;54086;50.126;8.710;2023-03-19T03:37:23;10.59;82.12
67157;SHT31;54086;50.126;8.710;2023-03-19T03:39:48;10.66;81.49
67157;SHT31;54086;50.126;8.710;2023-03-19T03:42:13;10.72;81.68
67157;SHT31;54086;50.126;8.710;2023-03-19T03:44:39;10.77;80.11
67157;SHT31;54086;50.126;8.710;2023-03-19T03:47:04;10.79;79.67
67157;SHT31;54086;50.126;8.710;2023-03-19T03:49:31;10.77;80.79
67157;SHT31;54086;50.126;8.710;2023-03-19T03:51:56;10.79;80.81
67157;SHT31;54086;50.126;8.710;2023-03-19T03:54:21;10.72;81.13
67157;SHT31;54086;50.126;8.710;2023-03-19T03:56:47;10.63;80.33
67157;SHT31;54086;50.126;8.710;2023-03-19T03:59:14;10.72;78.61
67157;SHT31;54086;50.126;8.710;2023-03-19T04:01:40;10.77;79.15
67157;SHT31;54086;50.126;8.710;2023-03-19T04:04:05;10.87;78.13
67157;SHT31;54086;50.126;8.710;2023-03-19T04:06:31;10.90;78.25
67157;SHT31;54086;50.126;8.710;2023-03-19T04:08:56;10.93;77.51
67157;SHT31;54086;50.126;8.710;2023-03-19T04:11:22;11.00;76.81
67157;SHT31;54086;50.126;8.710;2023-03-19T04:13:47;11.01;77.10
67157;SHT31;54086;50.126;8.710;2023-03-19T04:16:12;11.00;76.50
67157;SHT31;54086;50.126;8.710;2023-03-19T04:18:40;11.03;76.37
67157;SHT31;54086;50.126;8.710;2023-03-19T04:21:05;11.07;76.22
67157;SHT31;54086;50.126;8.710;2023-03-19T04:23:31;11.11;76.07
67157;SHT31;54086;50.126;8.710;2023-03-19T04:26:01;11.09;76.02
67157;SHT31;54086;50.126;8.710;2023-03-19T04:28:27;11.06;75.89
67157;SHT31;54086;50.126;8.710;2023-03-19T04:30:58;11.00;75.83
67157;SHT31;54086;50.126;8.710;2023-03-19T04:33:24;11.03;75.62
67157;SHT31;54086;50.126;8.710;2023-03-19T04:35:49;10.97;75.51
67157;SHT31;54086;50.126;8.710;2023-03-19T04:38:15;10.95;75.51
67157;SHT31;54086;50.126;8.710;2023-03-19T04:40:40;10.93;75.36
67157;SHT31;54086;50.126;8.710;2023-03-19T04:43:06;10.95;75.36
67157;SHT31;54086;50.126;8.710;2023-03-19T04:45:31;10.93;75.30
67157;SHT31;54086;50.126;8.710;2023-03-19T04:47:57;10.90;75.43
67157;SHT31;54086;50.126;8.710;2023-03-19T04:50:22;10.89;75.56
67157;SHT31;54086;50.126;8.710;2023-03-19T04:52:48;10.99;75.28
67157;SHT31;54086;50.126;8.710;2023-03-19T04:55:13;10.95;75.31
67157;SHT31;54086;50.126;8.710;2023-03-19T04:57:39;10.93;75.21
67157;SHT31;54086;50.126;8.710;2023-03-19T05:00:05;10.86;75.29
67157;SHT31;54086;50.126;8.710;2023-03-19T05:02:31;10.84;75.43
67157;SHT31;54086;50.126;8.710;2023-03-19T05:04:56;10.86;75.40
67157;SHT31;54086;50.126;8.710;2023-03-19T05:07:21;10.81;75.61
67157;SHT31;54086;50.126;8.710;2023-03-19T05:09:47;10.81;75.72
67157;SHT31;54086;50.126;8.710;2023-03-19T05:12:12;10.80;75.85
67157;SHT31;54086;50.126;8.710;2023-03-19T05:14:38;10.80;75.89
67157;SHT31;54086;50.126;8.710;2023-03-19T05:17:03;10.87;75.82
67157;SHT31;54086;50.126;8.710;2023-03-19T05:19:29;10.83;75.75
67157;SHT31;54086;50.126;8.710;2023-03-19T05:21:54;10.93;75.87
67157;SHT31;54086;50.126;8.710;2023-03-19T05:24:22;10.90;75.81
67157;SHT31;54086;50.126;8.710;2023-03-19T05:26:47;10.92;75.81
67157;SHT31;54086;50.126;8.710;2023-03-19T05:29:13;10.96;75.79
67157;SHT31;54086;50.126;8.710;2023-03-19T05:31:39;10.93;75.86
67157;SHT31;54086;50.126;8.710;2023-03-19T05:34:04;10.86;76.12
67157;SHT31;54086;50.126;8.710;2023-03-19T05:36:30;10.80;76.22
67157;SHT31;54086;50.126;8.710;2023-03-19T05:38:55;10.69;76.58
67157;SHT31;54086;50.126;8.710;2023-03-19T05:41:20;10.70;76.57
67157;SHT31;54086;50.126;8.710;2023-03-19T05:43:46;10.76;76.58
67157;SHT31;54086;50.126;8.710;2023-03-19T05:46:11;10.77;76.52
67157;SHT31;54086;50.126;8.710;2023-03-19T05:48:37;10.81;76.58
67157;SHT31;54086;50.126;8.710;2023-03-19T05:51:03;10.77;76.51
67157;SHT31;54086;50.126;8.710;2023-03-19T05:53:28;10.83;76.39
67157;SHT31;54086;50.126;8.710;2023-03-19T05:55:54;10.83;76.32
67157;SHT31;54086;50.126;8.710;2023-03-19T05:58:19;10.80;76.40
67157;SHT31;54086;50.126;8.710;2023-03-19T06:00:44;10.75;76.55
67157;SHT31;54086;50.126;8.710;2023-03-19T06:03:10;10.76;76.54
67157;SHT31;54086;50.126;8.710;2023-03-19T06:05:36;10.73;76.55
67157;SHT31;54086;50.126;8.710;2023-03-19T06:08:01;10.80;76.47
67157;SHT31;54086;50.126;8.710;2023-03-19T06:10:27;10.81;76.51
67157;SHT31;54086;50.126;8.710;2023-03-19T06:12:52;10.73;76.70
67157;SHT31;54086;50.126;8.710;2023-03-19T06:15:17;10.75;76.72
67157;SHT31;54086;50.126;8.710;2023-03-19T06:17:43;10.70;76.82
67157;SHT31;54086;50.126;8.710;2023-03-19T06:20:10;10.69;76.76
67157;SHT31;54086;50.126;8.710;2023-03-19T06:22:35;10.72;76.79
67157;SHT31;54086;50.126;8.710;2023-03-19T06:25:01;10.84;76.62
67157;SHT31;54086;50.126;8.710;2023-03-19T06:27:26;10.77;76.67
67157;SHT31;54086;50.126;8.710;2023-03-19T06:29:52;10.84;76.73
67157;SHT31;54086;50.126;8.710;2023-03-19T06:32:17;10.92;76.60
67157;SHT31;54086;50.126;8.710;2023-03-19T06:34:43;10.93;76.32
67157;SHT31;54086;50.126;8.710;2023-03-19T06:37:08;10.92;76.46
67157;SHT31;54086;50.126;8.710;2023-03-19T06:39:33;11.04;76.19
67157;SHT31;54086;50.126;8.710;2023-03-19T06:41:59;11.07;75.95
67157;SHT31;54086;50.126;8.710;2023-03-19T06:44:24;11.13;75.79
67157;SHT31;54086;50.126;8.710;2023-03-19T06:46:50;11.07;76.04
67157;SHT31;54086;50.126;8.710;2023-03-19T06:49:15;11.21;75.97
67157;SHT31;54086;50.126;8.710;2023-03-19T06:51:41;11.23;75.71
67157;SHT31;54086;50.126;8.710;2023-03-19T06:54:06;11.24;75.63
67157;SHT31;54086;50.126;8.710;2023-03-19T06:56:32;11.20;75.80
67157;SHT31;54086;50.126;8.710;2023-03-19T06:58:57;11.11;75.99
67157;SHT31;54086;50.126;8.710;2023-03-19T07:01:23;11.09;76.12
67157;SHT31;54086;50.126;8.710;2023-03-19T07:03:49;11.23;75.81
67157;SHT31;54086;50.126;8.710;2023-03-19T07:06:14;11.31;75.73
67157;SHT31;54086;50.126;8.710;2023-03-19T07:08:39;11.26;75.80
67157;SHT31;54086;50.126;8.710;2023-03-19T07:11:10;11.20;76.04
67157;SHT31;54086;50.126;8.710;2023-03-19T07:13:36;11.28;75.91
67157;SHT31;54086;50.126;8.710;2023-03-19T07:16:02;11.26;75.89
67157;SHT31;54086;50.126;8.710;2023-03-19T07:18:27;11.24;76.05
67157;SHT31;54086;50.126;8.710;2023-03-19T07:20:53;11.30;75.86
67157;SHT31;54086;50.126;8.710;2023-03-19T07:23:18;11.30;75.74
67157;SHT31;54086;50.126;8.710;2023-03-19T07:25:44;11.38;75.67
67157;SHT31;54086;50.126;8.710;2023-03-19T07:28:09;11.42;75.63
67157;SHT31;54086;50.126;8.710;2023-03-19T07:30:35;11.32;75.85
67157;SHT31;54086;50.126;8.710;2023-03-19T07:33:02;11.47;75.71
67157;SHT31;54086;50.126;8.710;2023-03-19T07:35:27;11.52;75.69
67157;SHT31;54086;50.126;8.710;2023-03-19T07:37:53;11.65;75.22
67157;SHT31;54086;50.126;8.710;2023-03-19T07:40:18;11.77;74.76
67157;SHT31;54086;50.126;8.710;2023-03-19T07:42:43;11.86;74.54
67157;SHT31;54086;50.126;8.710;2023-03-19T07:45:09;11.89;74.58
67157;SHT31;54086;50.126;8.710;2023-03-19T07:47:34;11.96;74.53
67157;SHT31;54086;50.126;8.710;2023-03-19T07:50:00;12.13;73.99
67157;SHT31;54086;50.126;8.710;2023-03-19T07:52:26;12.10;73.97
67157;SHT31;54086;50.126;8.710;2023-03-19T07:54:51;12.16;73.88
67157;SHT31;54086;50.126;8.710;2023-03-19T07:57:17;12.03;73.88
67157;SHT31;54086;50.126;8.710;2023-03-19T07:59:43;12.16;73.98
67157;SHT31;54086;50.126;8.710;2023-03-19T08:02:10;12.22;73.85
67157;SHT31;54086;50.126;8.710;2023-03-19T08:04:36;12.26;73.76
67157;SHT31;54086;50.126;8.710;2023-03-19T08:07:01;12.36;73.47
67157;SHT31;54086;50.126;8.710;2023-03-19T08:09:26;12.54;73.10
67157;SHT31;54086;50.126;8.710;2023-03-19T08:11:52;12.38;73.44
67157;SHT31;54086;50.126;8.710;2023-03-19T08:14:17;12.44;73.39
67157;SHT31;54086;50.126;8.710;2023-03-19T08:16:47;12.53;73.13
67157;SHT31;54086;50.126;8.710;2023-03-19T08:19:12;12.58;73.06
67157;SHT31;54086;50.126;8.710;2023-03-19T08:21:38;12.67;72.73
67157;SHT31;54086;50.126;8.710;2023-03-19T08:24:03;12.84;72.53
67157;SHT31;54086;50.126;8.710;2023-03-19T08:26:29;12.94;72.16
67157;SHT31;54086;50.126;8.710;2023-03-19T08:28:54;13.04;71.90
67157;SHT31;54086;50.126;8.710;2023-03-19T08:31:20;12.99;71.83
67157;SHT31;54086;50.126;8.710;2023-03-19T08:33:45;12.97;71.91
67157;SHT31;54086;50.126;8.710;2023-03-19T08:36:12;12.89;72.28
67157;SHT31;54086;50.126;8.710;2023-03-19T08:38:38;13.05;71.88
67157;SHT31;54086;50.126;8.710;2023-03-19T08:41:05;13.23;71.50
67157;SHT31;54086;50.126;8.710;2023-03-19T08:43:32;13.20;71.57
67157;SHT31;54086;50.126;8.710;2023-03-19T08:45:58;13.15;71.91
67157;SHT31;54086;50.126;8.710;2023-03-19T08:48:24;13.26;71.69
67157;SHT31;54086;50.126;8.710;2023-03-19T08:50:58;13.14;71.63
67157;SHT31;54086;50.126;8.710;2023-03-19T08:53:25;13.29;71.44
67157;SHT31;54086;50.126;8.710;2023-03-19T08:55:56;13.28;71.73
67157;SHT31;54086;50.126;8.710;2023-03-19T08:58:23;13.43;71.27
67157;SHT31;54086;50.126;8.710;2023-03-19T09:00:49;13.29;71.63
67157;SHT31;54086;50.126;8.710;2023-03-19T09:03:15;13.47;70.89
67157;SHT31;54086;50.126;8.710;2023-03-19T09:05:41;14.29;69.25
67157;SHT31;54086;50.126;8.710;2023-03-19T09:08:07;14.97;67.30
67157;SHT31;54086;50.126;8.710;2023-03-19T09:10:32;15.58;66.25
67157;SHT31;54086;50.126;8.710;2023-03-19T09:12:57;16.53;63.86
67157;SHT31;54086;50.126;8.710;2023-03-19T09:15:24;16.29;63.41
67157;SHT31;54086;50.126;8.710;2023-03-19T09:17:49;16.36;63.63
67157;SHT31;54086;50.126;8.710;2023-03-19T09:20:15;17.01;62.08
67157;SHT31;54086;50.126;8.710;2023-03-19T09:22:40;17.40;60.93
67157;SHT31;54086;50.126;8.710;2023-03-19T09:25:06;17.01;61.43
67157;SHT31;54086;50.126;8.710;2023-03-19T09:27:31;17.07;61.75
67157;SHT31;54086;50.126;8.710;2023-03-19T09:29:57;17.72;60.82
67157;SHT31;54086;50.126;8.710;2023-03-19T09:32:22;17.15;60.83
67157;SHT31;54086;50.126;8.710;2023-03-19T09:34:48;17.45;61.06
67157;SHT31;54086;50.126;8.710;2023-03-19T09:37:13;17.35;60.61
67157;SHT31;54086;50.126;8.710;2023-03-19T09:39:39;18.53;58.26
67157;SHT31;54086;50.126;8.710;2023-03-19T09:45:21;17.80;59.41
67157;SHT31;54086;50.126;8.710;2023-03-19T09:47:50;17.69;60.17
67157;SHT31;54086;50.126;8.710;2023-03-19T09:50:20;17.04;61.38
67157;SHT31;54086;50.126;8.710;2023-03-19T09:53:11;16.83;62.17
67157;SHT31;54086;50.126;8.710;2023-03-19T09:55:42;16.56;63.15
67157;SHT31;54086;50.126;8.710;2023-03-19T09:58:43;16.40;63.74
67157;SHT31;54086;50.126;8.710;2023-03-19T10:01:24;16.47;63.28
67157;SHT31;54086;50.126;8.710;2023-03-19T10:06:52;17.66;60.78
67157;SHT31;54086;50.126;8.710;2023-03-19T10:09:44;18.48;58.71
67157;SHT31;54086;50.126;8.710;2023-03-19T10:15:14;17.79;59.95
67157;SHT31;54086;50.126;8.710;2023-03-19T10:20:28;17.50;60.37
67157;SHT31;54086;50.126;8.710;2023-03-19T10:23:02;17.05;61.61
67157;SHT31;54086;50.126;8.710;2023-03-19T10:25:33;16.89;62.26
67157;SHT31;54086;50.126;8.710;2023-03-19T10:28:13;16.71;62.54
67157;SHT31;54086;50.126;8.710;2023-03-19T10:30:40;16.70;62.52
67157;SHT31;54086;50.126;8.710;2023-03-19T10:33:25;16.81;62.62
67157;SHT31;54086;50.126;8.710;2023-03-19T10:35:58;16.80;63.03
67157;SHT31;54086;50.126;8.710;2023-03-19T10:38:25;16.81;62.37
67157;SHT31;54086;50.126;8.710;2023-03-19T10:41:04;16.71;62.84
67157;SHT31;54086;50.126;8.710;2023-03-19T10:43:35;16.44;63.12
67157;SHT31;54086;50.126;8.710;2023-03-19T10:46:01;16.77;62.59
67157;SHT31;54086;50.126;8.710;2023-03-19T10:48:27;17.19;62.02
67157;SHT31;54086;50.126;8.710;2023-03-19T10:51:00;17.47;60.93
67157;SHT31;54086;50.126;8.710;2023-03-19T10:53:36;17.49;61.09
67157;SHT31;54086;50.126;8.710;2023-03-19T10:56:19;17.22;61.50
67157;SHT31;54086;50.126;8.710;2023-03-19T11:01:26;16.68;62.37
67157;SHT31;54086;50.126;8.710;2023-03-19T11:03:56;16.78;62.23
67157;SHT31;54086;50.126;8.710;2023-03-19T11:06:33;16.74;62.25
67157;SHT31;54086;50.126;8.710;2023-03-19T11:11:45;16.70;61.93
67157;SHT31;54086;50.126;8.710;2023-03-19T11:14:25;16.61;62.08
67157;SHT31;54086;50.126;8.710;2023-03-19T11:17:01;16.70;62.02
67157;SHT31;54086;50.126;8.710;2023-03-19T11:19:29;16.95;61.49
67157;SHT31;54086;50.126;8.710;2023-03-19T11:22:07;16.81;61.19
67157;SHT31;54086;50.126;8.710;2023-03-19T11:24:38;16.44;62.01
67157;SHT31;54086;50.126;8.710;2023-03-19T11:27:05;16.27;62.45
67157;SHT31;54086;50.126;8.710;2023-03-19T11:29:39;16.88;61.29
67157;SHT31;54086;50.126;8.710;2023-03-19T11:35:15;17.39;59.82
67157;SHT31;54086;50.126;8.710;2023-03-19T11:37:55;18.20;58.12
67157;SHT31;54086;50.126;8.710;2023-03-19T11:40:46;18.04;57.79
67157;SHT31;54086;50.126;8.710;2023-03-19T11:52:45;18.42;57.97
67157;SHT31;54086;50.126;8.710;2023-03-19T11:55:11;19.53;55.54
67157;SHT31;54086;50.126;8.710;2023-03-19T12:00:50;17.80;57.64
67157;SHT31;54086;50.126;8.710;2023-03-19T12:03:42;18.04;57.49
67157;SHT31;54086;50.126;8.710;2023-03-19T12:06:28;17.77;58.54
67157;SHT31;54086;50.126;8.710;2023-03-19T12:09:00;18.20;58.31
67157;SHT31;54086;50.126;8.710;2023-03-19T12:20:28;17.54;58.23
67157;SHT31;54086;50.126;8.710;2023-03-19T12:25:44;17.93;57.62
67157;SHT31;54086;50.126;8.710;2023-03-19T12:28:23;17.91;57.22
67157;SHT31;54086;50.126;8.710;2023-03-19T12:33:46;16.83;59.20
67157;SHT31;54086;50.126;8.710;2023-03-19T12:36:19;16.42;59.77
67157;SHT31;54086;50.126;8.710;2023-03-19T12:38:52;16.33;61.10
67157;SHT31;54086;50.126;8.710;2023-03-19T12:41:20;16.27;61.92
67157;SHT31;54086;50.126;8.710;2023-03-19T12:44:08;16.09;62.14
67157;SHT31;54086;50.126;8.710;2023-03-19T12:46:39;16.36;61.92
67157;SHT31;54086;50.126;8.710;2023-03-19T12:51:55;16.83;61.08
67157;SHT31;54086;50.126;8.710;2023-03-19T12:54:27;16.85;61.19
67157;SHT31;54086;50.126;8.710;2023-03-19T12:57:01;16.98;61.11
67157;SHT31;54086;50.126;8.710;2023-03-19T12:59:57;17.25;61.78
67157;SHT31;54086;50.126;8.710;2023-03-19T13:05:40;16.94;62.82
67157;SHT31;54086;50.126;8.710;2023-03-19T13:08:31;16.95;62.78
67157;SHT31;54086;50.126;8.710;2023-03-19T13:11:01;16.89;62.15
67157;SHT31;54086;50.126;8.710;2023-03-19T13:13:40;16.49;62.49
67157;SHT31;54086;50.126;8.710;2023-03-19T13:21:31;16.50;63.20
67157;SHT31;54086;50.126;8.710;2023-03-19T13:24:24;16.70;63.62
67157;SHT31;54086;50.126;8.710;2023-03-19T13:26:51;16.52;64.67
67157;SHT31;54086;50.126;8.710;2023-03-19T13:29:21;16.05;66.72
67157;SHT31;54086;50.126;8.710;2023-03-19T13:31:47;15.92;67.56
67157;SHT31;54086;50.126;8.710;2023-03-19T13:36:41;15.58;69.35
67157;SHT31;54086;50.126;8.710;2023-03-19T13:39:17;15.41;70.09
67157;SHT31;54086;50.126;8.710;2023-03-19T13:46:55;15.30;70.82
67157;SHT31;54086;50.126;8.710;2023-03-19T13:49:24;15.31;70.31
67157;SHT31;54086;50.126;8.710;2023-03-19T13:51:53;15.47;71.40
67157;SHT31;54086;50.126;8.710;2023-03-19T13:54:19;15.33;72.56
67157;SHT31;54086;50.126;8.710;2023-03-19T13:59:36;15.55;74.46
67157;SHT31;54086;50.126;8.710;2023-03-19T14:05:01;15.86;71.66
67157;SHT31;54086;50.126;8.710;2023-03-19T14:07:32;15.53;70.35
67157;SHT31;54086;50.126;8.710;2023-03-19T14:12:37;15.17;71.57
67157;SHT31;54086;50.126;8.710;2023-03-19T14:22:53;14.32;73.69
67157;SHT31;54086;50.126;8.710;2023-03-19T14:25:27;14.01;75.67
67157;SHT31;54086;50.126;8.710;2023-03-19T14:28:15;13.83;76.80
67157;SHT31;54086;50.126;8.710;2023-03-19T14:30:47;13.84;77.10
67157;SHT31;54086;50.126;8.710;2023-03-19T14:33:25;13.67;78.19
67157;SHT31;54086;50.126;8.710;2023-03-19T14:35:52;13.56;78.82
67157;SHT31;54086;50.126;8.710;2023-03-19T14:38:33;13.74;79.13
67157;SHT31;54086;50.126;8.710;2023-03-19T14:40:59;13.87;79.79
67157;SHT31;54086;50.126;8.710;2023-03-19T14:46:00;13.60;78.79
67157;SHT31;54086;50.126;8.710;2023-03-19T14:48:58;13.46;78.70
67157;SHT31;54086;50.126;8.710;2023-03-19T14:54:39;13.50;79.94
67157;SHT31;54086;50.126;8.710;2023-03-19T14:57:17;13.86;78.78
67157;SHT31;54086;50.126;8.710;2023-03-19T14:59:43;13.63;78.26
67157;SHT31;54086;50.126;8.710;2023-03-19T15:05:14;13.65;79.42
67157;SHT31;54086;50.126;8.710;2023-03-19T15:07:43;13.47;79.34
67157;SHT31;54086;50.126;8.710;2023-03-19T15:10:17;13.53;79.21
67157;SHT31;54086;50.126;8.710;2023-03-19T15:13:11;13.62;79.47
67157;SHT31;54086;50.126;8.710;2023-03-19T15:18:10;13.49;79.55
67157;SHT31;54086;50.126;8.710;2023-03-19T15:20:41;13.49;79.37
67157;SHT31;54086;50.126;8.710;2023-03-19T15:23:09;13.49;79.83
67157;SHT31;54086;50.126;8.710;2023-03-19T15:25:46;13.46;79.96
67157;SHT31;54086;50.126;8.710;2023-03-19T15:28:14;13.45;80.14
67157;SHT31;54086;50.126;8.710;2023-03-19T15:30:40;13.62;79.96
67157;SHT31;54086;50.126;8.710;2023-03-19T15:33:18;13.76;79.29
67157;SHT31;54086;50.126;8.710;2023-03-19T15:35:47;13.73;79.16
67157;SHT31;54086;50.126;8.710;2023-03-19T15:38:15;13.70;79.02
67157;SHT31;54086;50.126;8.710;2023-03-19T15:40:41;13.84;79.02
67157;SHT31;54086;50.126;8.710;2023-03-19T15:43:10;13.94;78.64
67157;SHT31;54086;50.126;8.710;2023-03-19T15:45:36;13.97;78.45
67157;SHT31;54086;50.126;8.710;2023-03-19T15:48:24;13.97;78.18
67157;SHT31;54086;50.126;8.710;2023-03-19T15:50:56;14.05;78.17
67157;SHT31;54086;50.126;8.710;2023-03-19T15:53:25;14.22;77.65
67157;SHT31;54086;50.126;8.710;2023-03-19T15:55:53;14.38;77.25
67157;SHT31;54086;50.126;8.710;2023-03-19T15:58:22;14.41;76.88
67157;SHT31;54086;50.126;8.710;2023-03-19T16:00:50;14.39;77.11
67157;SHT31;54086;50.126;8.710;2023-03-19T16:03:19;14.24;77.23
67157;SHT31;54086;50.126;8.710;2023-03-19T16:05:52;14.42;76.59
67157;SHT31;54086;50.126;8.710;2023-03-19T16:08:24;14.36;76.45
67157;SHT31;54086;50.126;8.710;2023-03-19T16:10:50;14.29;76.61
67157;SHT31;54086;50.126;8.710;2023-03-19T16:13:28;14.11;76.84
67157;SHT31;54086;50.126;8.710;2023-03-19T16:16:03;14.17;76.97
67157;SHT31;54086;50.126;8.710;2023-03-19T16:18:40;14.31;76.08
67157;SHT31;54086;50.126;8.710;2023-03-19T16:21:08;14.04;76.63
67157;SHT31;54086;50.126;8.710;2023-03-19T16:23:40;14.17;76.56
67157;SHT31;54086;50.126;8.710;2023-03-19T16:26:14;14.42;76.08
67157;SHT31;54086;50.126;8.710;2023-03-19T16:28:43;14.55;75.71
67157;SHT31;54086;50.126;8.710;2023-03-19T16:31:22;14.29;75.92
67157;SHT31;54086;50.126;8.710;2023-03-19T16:33:49;14.38;75.90
67157;SHT31;54086;50.126;8.710;2023-03-19T16:36:16;14.56;75.46
67157;SHT31;54086;50.126;8.710;2023-03-19T16:38:47;14.54;75.28
67157;SHT31;54086;50.126;8.710;2023-03-19T16:41:30;14.48;75.39
67157;SHT31;54086;50.126;8.710;2023-03-19T16:44:14;14.49;75.36
67157;SHT31;54086;50.126;8.710;2023-03-19T16:46:39;14.61;74.70
67157;SHT31;54086;50.126;8.710;2023-03-19T16:49:05;14.56;74.31
67157;SHT31;54086;50.126;8.710;2023-03-19T16:51:31;14.49;73.61
67157;SHT31;54086;50.126;8.710;2023-03-19T16:53:56;14.49;73.24
67157;SHT31;54086;50.126;8.710;2023-03-19T16:56:22;14.49;73.24
67157;SHT31;54086;50.126;8.710;2023-03-19T16:58:47;14.55;72.95
67157;SHT31;54086;50.126;8.710;2023-03-19T17:01:20;14.51;72.60
67157;SHT31;54086;50.126;8.710;2023-03-19T17:03:46;14.35;72.89
67157;SHT31;54086;50.126;8.710;2023-03-19T17:06:13;14.17;73.24
67157;SHT31;54086;50.126;8.710;2023-03-19T17:08:39;14.20;73.37
67157;SHT31;54086;50.126;8.710;2023-03-19T17:11:06;14.14;73.37
67157;SHT31;54086;50.126;8.710;2023-03-19T17:13:36;14.17;73.40